Observation data for Amherst on 01/17/2019      Previous  Date  Next       Current Mesonet Observations  Soil Data  Daily Summary Page  Observations in Plain Language
KAMH 170600Z 27019KT 11/M02 A301 RMK A01 T01091021  RH  041%=      5-min Rain = 0
KAMH 170605Z 28019KT 11/M02 A301 RMK A01 T01071021  RH  041%=      5-min Rain = 0
KAMH 170610Z 27019KT 11/M02 A3009 RMK A01 T01071021  RH  041%=      5-min Rain = 0
KAMH 170615Z 27020G25KT 11/M02 A3009 RMK A01 T01071022  RH  041%=      5-min Rain = 0
KAMH 170620Z 27019KT 11/M02 A3009 RMK A01 T01071022  RH  041%=      5-min Rain = 0
KAMH 170625Z 27018KT 11/M02 A3009 RMK A01 T01071022  RH  041%=      5-min Rain = 0
KAMH 170630Z 28017KT 11/M02 A3009 RMK A01 T01071022  RH  041%=      5-min Rain = 0
KAMH 170635Z 28017G22KT 11/M02 A3009 RMK A01 T01071022  RH  041%=      5-min Rain = 0
KAMH 170640Z 28016G23KT 10/M02 A3009 RMK A01 T01041022  RH  041%=      5-min Rain = 0
KAMH 170645Z 28016G21KT 10/M02 A3009 RMK A01 T01041023  RH  041%=      5-min Rain = 0
KAMH 170650Z 28016KT 11/M02 A3009 RMK A01 T01051024  RH  041%=      5-min Rain = 0
KAMH 170655Z 28016KT 10/M02 A3009 RMK A01 T01021024  RH  041%=      5-min Rain = 0
KAMH 170700Z 28016KT 10/M02 A3009 RMK A01 T01021024  RH  041%=      5-min Rain = 0
KAMH 170705Z 28015KT 10/M02 A3009 RMK A01 T01001023  RH  042%=      5-min Rain = 0
KAMH 170710Z 28015KT 10/M02 A3009 RMK A01 T00981022  RH  043%=      5-min Rain = 0
KAMH 170715Z 29013KT 10/M02 A301 RMK A01 T00971023  RH  043%=      5-min Rain = 0
KAMH 170720Z 29012KT 10/M02 A301 RMK A01 T00951022  RH  044%=      5-min Rain = 0
KAMH 170725Z 28010KT 09/M02 A301 RMK A01 T00901023  RH  046%=      5-min Rain = 0
KAMH 170730Z 27010KT 08/M02 A301 RMK A01 T00841023  RH  047%=      5-min Rain = 0
KAMH 170735Z 27010KT 08/M02 A301 RMK A01 T00821023  RH  048%=      5-min Rain = 0
KAMH 170740Z 26009KT 08/M02 A3011 RMK A01 T00781023  RH  049%=      5-min Rain = 0
KAMH 170745Z 26010KT 07/M02 A3011 RMK A01 T00731022  RH  051%=      5-min Rain = 0
KAMH 170750Z 26011KT 07/M02 A3011 RMK A01 T00741020  RH  052%=      5-min Rain = 0
KAMH 170755Z 26012KT 08/M02 A3011 RMK A01 T00761020  RH  051%=      5-min Rain = 0
KAMH 170800Z 27012KT 08/M02 A3011 RMK A01 T00771020  RH  051%=      5-min Rain = 0
KAMH 170805Z 28014KT 08/M02 A3011 RMK A01 T00841019  RH  049%=      5-min Rain = 0
KAMH 170810Z 28016KT 09/M02 A3011 RMK A01 T00881019  RH  048%=      5-min Rain = 0
KAMH 170815Z 28016KT 09/M02 A3011 RMK A01 T00861019  RH  048%=      5-min Rain = 0
KAMH 170820Z 28018KT 09/M02 A3011 RMK A01 T00861018  RH  048%=      5-min Rain = 0
KAMH 170825Z 28020G26KT 09/M02 A301 RMK A01 T00881018  RH  048%=      5-min Rain = 0
KAMH 170830Z 28023KT 09/M02 A301 RMK A01 T00921018  RH  046%=      5-min Rain = 0
KAMH 170835Z 29022G27KT 09/M02 A301 RMK A01 T00941018  RH  046%=      5-min Rain = 0
KAMH 170840Z 29022G27KT 10/M02 A3011 RMK A01 T00951017  RH  046%=      5-min Rain = 0
KAMH 170845Z 29022G29KT 10/M02 A301 RMK A01 T00971017  RH  045%=      5-min Rain = 0
KAMH 170850Z 28023G29KT 10/M02 A301 RMK A01 T00991017  RH  045%=      5-min Rain = 0
KAMH 170855Z 29024G33KT 10/M02 A301 RMK A01 T01001017  RH  044%=      5-min Rain = 0
KAMH 170900Z 28024G30KT 10/M02 A301 RMK A01 T01001016  RH  045%=      5-min Rain = 0
KAMH 170905Z 28023G31KT 10/M02 A301 RMK A01 T00981016  RH  045%=      5-min Rain = 0
KAMH 170910Z 29023G29KT 10/M02 A301 RMK A01 T00961016  RH  046%=      5-min Rain = 0
KAMH 170915Z 28023G30KT 10/M02 A301 RMK A01 T00961015  RH  046%=      5-min Rain = 0
KAMH 170920Z 29021G27KT 10/M02 A301 RMK A01 T00951015  RH  046%=      5-min Rain = 0
KAMH 170925Z 29022KT 09/M02 A3011 RMK A01 T00941015  RH  047%=      5-min Rain = 0
KAMH 170930Z 28021G27KT 09/M02 A3011 RMK A01 T00931015  RH  047%=      5-min Rain = 0
KAMH 170935Z 28019G25KT 09/M02 A3012 RMK A01 T00911015  RH  048%=      5-min Rain = 0
KAMH 170940Z 29017KT 09/M02 A3012 RMK A01 T00881015  RH  049%=      5-min Rain = 0
KAMH 170945Z 28016KT 08/M02 A3012 RMK A01 T00841016  RH  050%=      5-min Rain = 0
KAMH 170950Z 28015KT 08/M02 A3013 RMK A01 T00811016  RH  051%=      5-min Rain = 0
KAMH 170955Z 28015KT 08/M02 A3013 RMK A01 T00801015  RH  052%=      5-min Rain = 0
KAMH 171000Z 27015KT 08/M02 A3013 RMK A01 T00781015  RH  052%=      5-min Rain = 0
KAMH 171005Z 26013KT 08/M02 A3013 RMK A01 T00751016  RH  053%=      5-min Rain = 0
KAMH 171010Z 26012KT 07/M02 A3014 RMK A01 T00711016  RH  054%=      5-min Rain = 0
KAMH 171015Z 24009KT 06/M02 A3014 RMK A01 T00621020  RH  056%=      5-min Rain = 0
KAMH 171020Z 25009KT 05/M02 A3014 RMK A01 T00541021  RH  059%=      5-min Rain = 0
KAMH 171025Z 26010KT 05/M02 A3014 RMK A01 T00491021  RH  061%=      5-min Rain = 0
KAMH 171030Z 27011KT 05/M02 A3014 RMK A01 T00501019  RH  062%=      5-min Rain = 0
KAMH 171035Z 26012KT 05/M02 A3014 RMK A01 T00521017  RH  061%=      5-min Rain = 0
KAMH 171040Z 27011KT 05/M02 A3014 RMK A01 T00501019  RH  062%=      5-min Rain = 0
KAMH 171045Z 28011KT 05/M02 A3014 RMK A01 T00481019  RH  062%=      5-min Rain = 0
KAMH 171050Z 28012KT 05/M02 A3014 RMK A01 T00471020  RH  062%=      5-min Rain = 0
KAMH 171055Z 28012KT 05/M02 A3013 RMK A01 T00491019  RH  062%=      5-min Rain = 0
KAMH 171100Z 28013KT 05/M02 A3013 RMK A01 T00531017  RH  061%=      5-min Rain = 0
KAMH 171105Z 27011KT 05/M02 A3013 RMK A01 T00541018  RH  060%=      5-min Rain = 0
KAMH 171110Z 28013KT 05/M02 A3013 RMK A01 T00541018  RH  060%=      5-min Rain = 0
KAMH 171115Z 27014KT 05/M02 A3013 RMK A01 T00541017  RH  061%=      5-min Rain = 0
KAMH 171120Z 27013KT 05/M02 A3013 RMK A01 T00531017  RH  061%=      5-min Rain = 0
KAMH 171125Z 27011KT 05/M02 A3013 RMK A01 T00481018  RH  063%=      5-min Rain = 0
KAMH 171130Z 28013KT 05/M02 A3013 RMK A01 T00481016  RH  064%=      5-min Rain = 0
KAMH 171135Z 27014KT 05/M02 A3013 RMK A01 T00511016  RH  062%=      5-min Rain = 0
KAMH 171140Z 27011G16KT 05/M02 A3013 RMK A01 T00491017  RH  063%=      5-min Rain = 0
KAMH 171145Z 27011KT 04/M02 A3013 RMK A01 T00421020  RH  065%=      5-min Rain = 0
KAMH 171150Z 27010KT 04/M02 A3013 RMK A01 T00391019  RH  066%=      5-min Rain = 0
KAMH 171155Z 26010KT 04/M02 A3014 RMK A01 T00411018  RH  066%=      5-min Rain = 0
KAMH 171200Z 26009KT 04/M02 A3014 RMK A01 T00411018  RH  066%=      5-min Rain = 0
KAMH 171205Z 27008KT 04/M02 A3014 RMK A01 T00361021  RH  067%=      5-min Rain = 0
KAMH 171210Z 27009KT 04/M02 A3014 RMK A01 T00361019  RH  068%=      5-min Rain = 0
KAMH 171215Z 27009KT 04/M02 A3015 RMK A01 T00361019  RH  068%=      5-min Rain = 0
KAMH 171220Z 29010KT 04/M02 A3014 RMK A01 T00361019  RH  068%=      5-min Rain = 0
KAMH 171225Z 30012KT 04/M02 A3014 RMK A01 T00421017  RH  066%=      5-min Rain = 0
KAMH 171230Z 30014KT 05/M02 A3014 RMK A01 T00451016  RH  065%=      5-min Rain = 0
KAMH 171235Z 29016KT 05/M02 A3014 RMK A01 T00481015  RH  064%=      5-min Rain = 0
KAMH 171240Z 29015KT 05/M02 A3014 RMK A01 T00511015  RH  063%=      5-min Rain = 0
KAMH 171245Z 29014KT 05/M02 A3015 RMK A01 T00511015  RH  063%=      5-min Rain = 0
KAMH 171250Z 28012KT 05/M02 A3015 RMK A01 T00501015  RH  063%=      5-min Rain = 0
KAMH 171255Z 28011KT 05/M02 A3015 RMK A01 T00481016  RH  064%=      5-min Rain = 0
KAMH 171300Z 28010KT 05/M02 A3016 RMK A01 T00461016  RH  065%=      5-min Rain = 0
KAMH 171305Z 28009KT 04/M02 A3017 RMK A01 T00441017  RH  065%=      5-min Rain = 0
KAMH 171310Z 28009KT 04/M02 A3017 RMK A01 T00421017  RH  066%=      5-min Rain = 0
KAMH 171315Z 29008KT 04/M02 A3017 RMK A01 T00401018  RH  067%=      5-min Rain = 0
KAMH 171320Z 30007KT 04/M02 A3017 RMK A01 T00361019  RH  068%=      5-min Rain = 0
KAMH 171325Z 32006KT 03/M02 A3017 RMK A01 T00311020  RH  070%=      5-min Rain = 0
KAMH 171330Z 31008KT 03/M02 A3017 RMK A01 T00321019  RH  070%=      5-min Rain = 0
KAMH 171335Z 31007KT 03/M02 A3018 RMK A01 T00321019  RH  070%=      5-min Rain = 0
KAMH 171340Z 33007KT 03/M02 A3018 RMK A01 T00271021  RH  071%=      5-min Rain = 0
KAMH 171345Z 32007KT 03/M02 A3018 RMK A01 T00261021  RH  072%=      5-min Rain = 0
KAMH 171350Z 35007KT 02/M02 A3018 RMK A01 T00231024  RH  072%=      5-min Rain = 0
KAMH 171355Z 36007KT 02/M03 A3018 RMK A01 T00161027  RH  074%=      5-min Rain = 0
KAMH 171400Z 34007KT 01/M03 A3019 RMK A01 T00141026  RH  075%=      5-min Rain = 0
KAMH 171405Z 33006KT 01/M03 A3019 RMK A01 T00131027  RH  076%=      5-min Rain = 0
KAMH 171410Z 32006KT 01/M03 A3019 RMK A01 T00121026  RH  077%=      5-min Rain = 0
KAMH 171415Z 32005KT 01/M03 A3019 RMK A01 T00101027  RH  077%=      5-min Rain = 0
KAMH 171420Z 31005KT 01/M03 A3019 RMK A01 T00071028  RH  078%=      5-min Rain = 0
KAMH 171425Z 32006KT 01/M03 A3019 RMK A01 T00101026  RH  078%=      5-min Rain = 0
KAMH 171430Z 34007KT 01/M02 A302 RMK A01 T00141023  RH  077%=      5-min Rain = 0
KAMH 171435Z 32007KT 02/M02 A302 RMK A01 T00161024  RH  076%=      5-min Rain = 0
KAMH 171440Z 31008KT 02/M02 A302 RMK A01 T00201021  RH  075%=      5-min Rain = 0
KAMH 171445Z 32008KT 03/M02 A3019 RMK A01 T00251018  RH  074%=      5-min Rain = 0
KAMH 171450Z 31008KT 03/M02 A3019 RMK A01 T00281017  RH  073%=      5-min Rain = 0
KAMH 171455Z 32007KT 03/M02 A302 RMK A01 T00321016  RH  072%=      5-min Rain = 0
KAMH 171500Z 32006KT 04/M01 A302 RMK A01 T00361014  RH  070%=      5-min Rain = 0
KAMH 171505Z 33006KT 04/M02 A302 RMK A01 T00381015  RH  069%=      5-min Rain = 0
KAMH 171510Z 32006KT 04/M01 A302 RMK A01 T00411014  RH  068%=      5-min Rain = 0
KAMH 171515Z 33005KT 04/M01 A302 RMK A01 T00441013  RH  067%=      5-min Rain = 0
KAMH 171520Z 34006KT 05/M01 A302 RMK A01 T00471013  RH  066%=      5-min Rain = 0
KAMH 171525Z 33007KT 05/M01 A302 RMK A01 T00471013  RH  066%=      5-min Rain = 0
KAMH 171530Z 32008KT 05/M01 A302 RMK A01 T00491011  RH  066%=      5-min Rain = 0
KAMH 171535Z 32008KT 05/M01 A302 RMK A01 T00521010  RH  065%=      5-min Rain = 0
KAMH 171540Z 31008KT 06/M01 A302 RMK A01 T00571008  RH  064%=      5-min Rain = 0
KAMH 171545Z 30008KT 06/M01 A302 RMK A01 T00581010  RH  062%=      5-min Rain = 0
KAMH 171550Z 30008KT 06/M01 A302 RMK A01 T00611008  RH  062%=      5-min Rain = 0
KAMH 171555Z 29007KT 07/M01 A302 RMK A01 T00661006  RH  061%=      5-min Rain = 0
KAMH 171600Z 29007KT 07/M01 A3021 RMK A01 T00711005  RH  059%=      5-min Rain = 0
KAMH 171605Z 30008KT 08/M01 A3021 RMK A01 T00751005  RH  057%=      5-min Rain = 0
KAMH 171610Z 30007KT 08/M00 A3021 RMK A01 T00791003  RH  057%=      5-min Rain = 0
KAMH 171615Z 30008KT 09/M00 A3021 RMK A01 T00851001  RH  055%=      5-min Rain = 0
KAMH 171620Z 30009KT 09/M00 A3021 RMK A01 T00891001  RH  054%=      5-min Rain = 0
KAMH 171625Z 30008KT 09/00 A3021 RMK A01 T009200-0  RH  053%=      5-min Rain = 0
KAMH 171630Z 31009KT 10/00 A3021 RMK A01 T00960000  RH  052%=      5-min Rain = 0
KAMH 171635Z 30008KT 10/00 A3021 RMK A01 T01010001  RH  051%=      5-min Rain = 0
KAMH 171640Z 29008KT 11/00 A3021 RMK A01 T01050002  RH  049%=      5-min Rain = 0
KAMH 171645Z 29008KT 11/M00 A3021 RMK A01 T01091001  RH  047%=      5-min Rain = 0
KAMH 171650Z 29008KT 11/M00 A3021 RMK A01 T01111001  RH  046%=      5-min Rain = 0
KAMH 171655Z 28007KT 12/M00 A3021 RMK A01 T01151002  RH  045%=      5-min Rain = 0
KAMH 171700Z 29006KT 12/M00 A3021 RMK A01 T01201001  RH  044%=      5-min Rain = 0
KAMH 171705Z 27007KT 13/M00 A3022 RMK A01 T01251003  RH  042%=      5-min Rain = 0
KAMH 171710Z 27007KT 13/M00 A3022 RMK A01 T01301003  RH  041%=      5-min Rain = 0
KAMH 171715Z 27006KT 13/M01 A3022 RMK A01 T01331006  RH  039%=      5-min Rain = 0
KAMH 171720Z 26005KT 13/M01 A3022 RMK A01 T01321012  RH  037%=      5-min Rain = 0
KAMH 171725Z 26005KT 14/M01 A3022 RMK A01 T01371009  RH  037%=      5-min Rain = 0
KAMH 171730Z 27004KT 14/M01 A3022 RMK A01 T01371013  RH  036%=      5-min Rain = 0
KAMH 171735Z 23003KT 14/M02 A3022 RMK A01 T01381017  RH  035%=      5-min Rain = 0
KAMH 171740Z 23004KT 14/M01 A3022 RMK A01 T01411014  RH  035%=      5-min Rain = 0
KAMH 171745Z 23004KT 14/M02 A3022 RMK A01 T01431016  RH  034%=      5-min Rain = 0
KAMH 171750Z 26003KT 15/M02 A3021 RMK A01 T01451019  RH  032%=      5-min Rain = 0
KAMH 171755Z 23003KT 15/M03 A3021 RMK A01 T01471027  RH  030%=      5-min Rain = 0
KAMH 171800Z 21003KT 15/M03 A3021 RMK A01 T01491029  RH  029%=      5-min Rain = 0
KAMH 171805Z 20001KT 15/M03 A3021 RMK A01 T01521028  RH  029%=      5-min Rain = 0
KAMH 171810Z 20003KT 16/M03 A3021 RMK A01 T01551026  RH  029%=      5-min Rain = 0
KAMH 171815Z 17002KT 16/M03 A302 RMK A01 T01571026  RH  029%=      5-min Rain = 0
KAMH 171820Z 19001KT 16/M03 A302 RMK A01 T01571028  RH  028%=      5-min Rain = 0
KAMH 171825Z 24002KT 16/M03 A302 RMK A01 T01561025  RH  029%=      5-min Rain = 0
KAMH 171830Z 05002KT 16/M03 A3019 RMK A01 T01591025  RH  029%=      5-min Rain = 0
KAMH 171835Z 18003KT 16/M02 A3019 RMK A01 T01631024  RH  028%=      5-min Rain = 0
KAMH 171840Z 25003KT 16/M03 A3019 RMK A01 T01621031  RH  027%=      5-min Rain = 0
KAMH 171845Z 25003KT 16/M03 A3018 RMK A01 T01621029  RH  027%=      5-min Rain = 0
KAMH 171850Z 23006KT 17/M03 A3018 RMK A01 T01661031  RH  026%=      5-min Rain = 0
KAMH 171855Z 23004KT 17/M04 A3018 RMK A01 T01711036  RH  024%=      5-min Rain = 0
KAMH 171900Z 22004KT 17/M04 A3017 RMK A01 T01701039  RH  024%=      5-min Rain = 0
KAMH 171905Z 21006KT 17/M04 A3016 RMK A01 T01681042  RH  024%=      5-min Rain = 0
KAMH 171910Z 22005KT 17/M03 A3016 RMK A01 T01731033  RH  024%=      5-min Rain = 0
KAMH 171915Z 23003KT 17/M04 A3015 RMK A01 T01741038  RH  023%=      5-min Rain = 0
KAMH 171920Z 21006KT 17/M04 A3015 RMK A01 T01741037  RH  024%=      5-min Rain = 0
KAMH 171925Z 22003KT 18/M04 A3014 RMK A01 T01751039  RH  023%=      5-min Rain = 0
KAMH 171930Z 20006KT 18/M04 A3014 RMK A01 T01751041  RH  023%=      5-min Rain = 0
KAMH 171935Z 22006G11KT 18/M04 A3014 RMK A01 T01761042  RH  022%=      5-min Rain = 0
KAMH 171940Z 23006KT 18/M04 A3013 RMK A01 T01771043  RH  022%=      5-min Rain = 0
KAMH 171945Z 20005KT 18/M04 A3013 RMK A01 T01771040  RH  023%=      5-min Rain = 0
KAMH 171950Z 21005KT 18/M04 A3013 RMK A01 T01781044  RH  022%=      5-min Rain = 0
KAMH 171955Z 25007KT 18/M04 A3012 RMK A01 T01801040  RH  022%=      5-min Rain = 0
KAMH 172000Z 23006KT 18/M04 A3012 RMK A01 T01811037  RH  023%=      5-min Rain = 0
KAMH 172005Z 21007KT 18/M04 A3012 RMK A01 T01841036  RH  022%=      5-min Rain = 0
KAMH 172010Z 22005KT 19/M03 A3011 RMK A01 T01861034  RH  022%=      5-min Rain = 0
KAMH 172015Z 21007KT 18/M04 A3011 RMK A01 T01841036  RH  022%=      5-min Rain = 0
KAMH 172020Z 20005KT 18/M04 A3011 RMK A01 T01831036  RH  022%=      5-min Rain = 0
KAMH 172025Z 21003KT 18/M04 A301 RMK A01 T01831037  RH  022%=      5-min Rain = 0
KAMH 172030Z 22006KT 19/M04 A301 RMK A01 T01871037  RH  022%=      5-min Rain = 0
KAMH 172035Z 21009KT 19/M04 A301 RMK A01 T01891035  RH  022%=      5-min Rain = 0
KAMH 172040Z 19007KT 19/M03 A301 RMK A01 T01891034  RH  022%=      5-min Rain = 0
KAMH 172045Z 21007KT 19/M03 A3009 RMK A01 T01931032  RH  022%=      5-min Rain = 0
KAMH 172050Z 21007KT 19/M04 A3009 RMK A01 T01911039  RH  021%=      5-min Rain = 0
KAMH 172055Z 21009KT 19/M04 A3009 RMK A01 T01921035  RH  021%=      5-min Rain = 0
KAMH 172100Z 21007KT 19/M03 A3009 RMK A01 T01921034  RH  021%=      5-min Rain = 0
KAMH 172105Z 21007G12KT 19/M04 A3009 RMK A01 T01921042  RH  020%=      5-min Rain = 0
KAMH 172110Z 20008KT 19/M04 A3009 RMK A01 T01941041  RH  020%=      5-min Rain = 0
KAMH 172115Z 20007KT 19/M04 A3009 RMK A01 T01931041  RH  020%=      5-min Rain = 0
KAMH 172120Z 17008KT 19/M04 A3009 RMK A01 T01911042  RH  020%=      5-min Rain = 0
KAMH 172125Z 19007G12KT 19/M04 A3009 RMK A01 T01891042  RH  021%=      5-min Rain = 0
KAMH 172130Z 20007KT 19/M04 A3008 RMK A01 T01931039  RH  021%=      5-min Rain = 0
KAMH 172135Z 19007KT 19/M04 A3008 RMK A01 T01911041  RH  021%=      5-min Rain = 0
KAMH 172140Z 23006KT 20/M04 A3008 RMK A01 T01951044  RH  020%=      5-min Rain = 0
KAMH 172145Z 20008KT 20/M04 A3008 RMK A01 T01951041  RH  020%=      5-min Rain = 0
KAMH 172150Z 19008KT 20/M04 A3008 RMK A01 T01951039  RH  020%=      5-min Rain = 0
KAMH 172155Z 19009KT 19/M04 A3008 RMK A01 T01931041  RH  020%=      5-min Rain = 0
KAMH 172200Z 20008KT 20/M04 A3008 RMK A01 T01951039  RH  020%=      5-min Rain = 0
KAMH 172205Z 20008KT 20/M04 A3008 RMK A01 T01961041  RH  020%=      5-min Rain = 0
KAMH 172210Z 20009KT 20/M04 A3007 RMK A01 T01951042  RH  020%=      5-min Rain = 0
KAMH 172215Z 20007KT 20/M04 A3007 RMK A01 T01951042  RH  020%=      5-min Rain = 0
KAMH 172220Z 20007G12KT 20/M04 A3007 RMK A01 T01961041  RH  020%=      5-min Rain = 0
KAMH 172225Z 20008KT 20/M04 A3007 RMK A01 T01961041  RH  020%=      5-min Rain = 0
KAMH 172230Z 19009KT 20/M04 A3007 RMK A01 T01951039  RH  020%=      5-min Rain = 0
KAMH 172235Z 20009G14KT 19/M04 A3007 RMK A01 T01941039  RH  020%=      5-min Rain = 0
KAMH 172240Z 22009KT 19/M04 A3007 RMK A01 T01931043  RH  020%=      5-min Rain = 0
KAMH 172245Z 22010KT 19/M04 A3007 RMK A01 T01921043  RH  020%=      5-min Rain = 0
KAMH 172250Z 20008KT 19/M04 A3007 RMK A01 T01931044  RH  020%=      5-min Rain = 0
KAMH 172255Z 22009KT 19/M04 A3007 RMK A01 T01921044  RH  020%=      5-min Rain = 0
KAMH 172300Z 22009KT 19/M04 A3007 RMK A01 T01901044  RH  020%=      5-min Rain = 0
KAMH 172305Z 21008KT 19/M04 A3007 RMK A01 T01891044  RH  020%=      5-min Rain = 0
KAMH 172310Z 20008KT 19/M04 A3007 RMK A01 T01881043  RH  021%=      5-min Rain = 0
KAMH 172315Z 20008KT 19/M04 A3007 RMK A01 T01851041  RH  021%=      5-min Rain = 0
KAMH 172320Z 20008KT 18/M04 A3006 RMK A01 T01831041  RH  022%=      5-min Rain = 0
KAMH 172325Z 20006KT 18/M04 A3006 RMK A01 T01811040  RH  022%=      5-min Rain = 0
KAMH 172330Z 20006KT 18/M04 A3006 RMK A01 T01791040  RH  022%=      5-min Rain = 0
KAMH 172335Z 19006KT 17/M04 A3006 RMK A01 T01741038  RH  023%=      5-min Rain = 0
KAMH 172340Z 18006KT 17/M03 A3006 RMK A01 T01661031  RH  026%=      5-min Rain = 0
KAMH 172345Z 18005KT 16/M03 A3006 RMK A01 T01581027  RH  028%=      5-min Rain = 0
KAMH 172350Z 17005KT 15/M03 A3005 RMK A01 T01511030  RH  029%=      5-min Rain = 0
KAMH 172355Z 17006KT 15/M03 A3006 RMK A01 T01451031  RH  030%=      5-min Rain = 0
KAMH 180000Z 17006KT 14/M04 A3005 RMK A01 T01401035  RH  030%=      5-min Rain = 0
KAMH 180005Z 17006KT 14/M04 A3005 RMK A01 T01351040  RH  030%=      5-min Rain = 0
KAMH 180010Z 18006KT 13/M04 A3005 RMK A01 T01331040  RH  030%=      5-min Rain = 0
KAMH 180015Z 18006KT 13/M04 A3005 RMK A01 T01281041  RH  031%=      5-min Rain = 0
KAMH 180020Z 17006KT 12/M04 A3005 RMK A01 T01221039  RH  032%=      5-min Rain = 0
KAMH 180025Z 17006KT 12/M04 A3005 RMK A01 T01191039  RH  033%=      5-min Rain = 0
KAMH 180030Z 16006KT 12/M04 A3006 RMK A01 T01181039  RH  033%=      5-min Rain = 0
KAMH 180035Z 15006KT 11/M04 A3006 RMK A01 T01111041  RH  034%=      5-min Rain = 0
KAMH 180040Z 15007KT 11/M04 A3006 RMK A01 T01051041  RH  036%=      5-min Rain = 0
KAMH 180045Z 15007KT 10/M04 A3006 RMK A01 T01041038  RH  037%=      5-min Rain = 0
KAMH 180050Z 15007KT 10/M04 A3006 RMK A01 T01011037  RH  038%=      5-min Rain = 0
KAMH 180055Z 15008KT 10/M04 A3006 RMK A01 T00971036  RH  039%=      5-min Rain = 0
KAMH 180100Z 16008KT 10/M03 A3006 RMK A01 T00961033  RH  040%=      5-min Rain = 0
KAMH 180105Z 15008KT 09/M03 A3006 RMK A01 T00931031  RH  042%=      5-min Rain = 0
KAMH 180110Z 15008KT 09/M03 A3006 RMK A01 T00921030  RH  042%=      5-min Rain = 0
KAMH 180115Z 15007KT 09/M03 A3006 RMK A01 T00911029  RH  043%=      5-min Rain = 0
KAMH 180120Z 16008KT 09/M03 A3007 RMK A01 T00871029  RH  044%=      5-min Rain = 0
KAMH 180125Z 16008KT 09/M03 A3007 RMK A01 T00861028  RH  045%=      5-min Rain = 0
KAMH 180130Z 16008KT 09/M03 A3007 RMK A01 T00881028  RH  044%=      5-min Rain = 0
KAMH 180135Z 17007KT 09/M03 A3006 RMK A01 T00871028  RH  044%=      5-min Rain = 0
KAMH 180140Z 17008KT 09/M03 A3006 RMK A01 T00881026  RH  045%=      5-min Rain = 0
KAMH 180145Z 17009KT 09/M03 A3006 RMK A01 T00931025  RH  044%=      5-min Rain = 0
KAMH 180150Z 17009KT 09/M03 A3006 RMK A01 T00931026  RH  043%=      5-min Rain = 0
KAMH 180155Z 18008KT 09/M03 A3006 RMK A01 T00901025  RH  045%=      5-min Rain = 0
KAMH 180200Z 18009KT 09/M02 A3006 RMK A01 T00891023  RH  046%=      5-min Rain = 0
KAMH 180205Z 18010KT 09/M02 A3006 RMK A01 T00891023  RH  046%=      5-min Rain = 0
KAMH 180210Z 18009KT 09/M02 A3005 RMK A01 T00891024  RH  045%=      5-min Rain = 0
KAMH 180215Z 18008KT 09/M03 A3005 RMK A01 T00851025  RH  046%=      5-min Rain = 0
KAMH 180220Z 18009KT 08/M03 A3005 RMK A01 T00801025  RH  048%=      5-min Rain = 0
KAMH 180225Z 18009KT 08/M02 A3005 RMK A01 T00791024  RH  048%=      5-min Rain = 0
KAMH 180230Z 18009KT 08/M02 A3005 RMK A01 T00801024  RH  048%=      5-min Rain = 0
KAMH 180235Z 18008KT 08/M03 A3005 RMK A01 T00751025  RH  050%=      5-min Rain = 0
KAMH 180240Z 18007KT 07/M03 A3005 RMK A01 T00721026  RH  050%=      5-min Rain = 0
KAMH 180245Z 19008KT 07/M03 A3005 RMK A01 T00711027  RH  050%=      5-min Rain = 0
KAMH 180250Z 19008KT 07/M03 A3005 RMK A01 T00721026  RH  050%=      5-min Rain = 0
KAMH 180255Z 20009KT 08/M03 A3005 RMK A01 T00751026  RH  049%=      5-min Rain = 0
KAMH 180300Z 20009KT 08/M03 A3005 RMK A01 T00791027  RH  047%=      5-min Rain = 0
KAMH 180305Z 20009KT 08/M03 A3005 RMK A01 T00801030  RH  046%=      5-min Rain = 0
KAMH 180310Z 20008KT 08/M03 A3004 RMK A01 T00801032  RH  045%=      5-min Rain = 0
KAMH 180315Z 19009KT 08/M03 A3004 RMK A01 T00771033  RH  046%=      5-min Rain = 0
KAMH 180320Z 20010KT 08/M03 A3004 RMK A01 T00781032  RH  046%=      5-min Rain = 0
KAMH 180325Z 20010KT 08/M03 A3004 RMK A01 T00841034  RH  043%=      5-min Rain = 0
KAMH 180330Z 20009KT 09/M03 A3004 RMK A01 T00851034  RH  043%=      5-min Rain = 0
KAMH 180335Z 20010KT 09/M03 A3004 RMK A01 T00881033  RH  042%=      5-min Rain = 0
KAMH 180340Z 20010KT 09/M03 A3003 RMK A01 T00921034  RH  041%=      5-min Rain = 0
KAMH 180345Z 20009KT 09/M04 A3003 RMK A01 T00901035  RH  041%=      5-min Rain = 0
KAMH 180350Z 20009KT 09/M04 A3003 RMK A01 T00881035  RH  042%=      5-min Rain = 0
KAMH 180355Z 20009KT 09/M04 A3003 RMK A01 T00871035  RH  042%=      5-min Rain = 0
KAMH 180400Z 21010KT 09/M03 A3003 RMK A01 T00861034  RH  043%=      5-min Rain = 0
KAMH 180405Z 21011KT 09/M03 A3002 RMK A01 T00851034  RH  043%=      5-min Rain = 0
KAMH 180410Z 20013G18KT 09/M03 A3002 RMK A01 T00881031  RH  043%=      5-min Rain = 0
KAMH 180415Z 20012KT 09/M03 A3002 RMK A01 T00881031  RH  043%=      5-min Rain = 0
KAMH 180420Z 20012KT 09/M03 A3002 RMK A01 T00871030  RH  044%=      5-min Rain = 0
KAMH 180425Z 20011KT 09/M03 A3001 RMK A01 T00861030  RH  044%=      5-min Rain = 0
KAMH 180430Z 20012KT 08/M03 A3001 RMK A01 T00831029  RH  045%=      5-min Rain = 0
KAMH 180435Z 20012KT 08/M03 A3001 RMK A01 T00821028  RH  046%=      5-min Rain = 0
KAMH 180440Z 20012KT 08/M03 A3001 RMK A01 T00831027  RH  046%=      5-min Rain = 0
KAMH 180445Z 20012KT 08/M03 A3002 RMK A01 T00821026  RH  047%=      5-min Rain = 0
KAMH 180450Z 20013KT 08/M03 A3002 RMK A01 T00801026  RH  048%=      5-min Rain = 0
KAMH 180455Z 20012KT 08/M02 A3002 RMK A01 T00811022  RH  048%=      5-min Rain = 0
KAMH 180500Z 20012KT 08/M02 A3002 RMK A01 T00821021  RH  049%=      5-min Rain = 0
KAMH 180505Z 20011KT 08/M02 A3002 RMK A01 T00811019  RH  050%=      5-min Rain = 0
KAMH 180510Z 20011KT 08/M02 A3002 RMK A01 T00821017  RH  050%=      5-min Rain = 0
KAMH 180515Z 20011KT 08/M02 A3002 RMK A01 T00811016  RH  051%=      5-min Rain = 0
KAMH 180520Z 20012KT 08/M02 A3001 RMK A01 T00811015  RH  051%=      5-min Rain = 0
KAMH 180525Z 20012KT 08/M01 A3001 RMK A01 T00831014  RH  051%=      5-min Rain = 0
KAMH 180530Z 20012KT 08/M01 A3001 RMK A01 T00831013  RH  051%=      5-min Rain = 0
KAMH 180535Z 20011KT 08/M01 A3001 RMK A01 T00821013  RH  051%=      5-min Rain = 0
KAMH 180540Z 20013KT 08/M01 A3001 RMK A01 T00821013  RH  052%=      5-min Rain = 0
KAMH 180545Z 20013G18KT 08/M01 A3001 RMK A01 T00821013  RH  052%=      5-min Rain = 0
KAMH 180550Z 21012G17KT 08/M01 A3001 RMK A01 T00811013  RH  052%=      5-min Rain = 0
KAMH 180555Z 21012KT 08/M01 A3001 RMK A01 T00791013  RH  053%=      5-min Rain = 0

Page generated in 0.0356 seconds.